Time;durP1;ratioP1;P1;durP2;ratioP2;P2;SDS_P1;SDS_P2;PMS_P1;PMS_P2;Temp;Humidity;BMP_temperature;BMP_pressure;BME280_temperature;BME280_humidity;BME280_pressure;Samples;Min_cycle;Max_cycle;Signal;HPM_P1;HPM_P2
2020/12/29 00:01:49;;;;;;;9.30;5.15;;;;;;;;;;5052558;28;20453;-64
2020/12/29 00:04:16;;;;;;;12.38;5.30;;;;;;;;;;5057007;28;20119;-64
2020/12/29 00:06:45;;;;;;;7.72;4.50;;;;;;;;;;5059259;28;20044;-64
2020/12/29 00:09:11;;;;;;;9.30;4.80;;;;;;;;;;5054793;28;20037;-64
2020/12/29 00:11:37;;;;;;;7.70;4.88;;;;;;;;;;5054803;28;20036;-64
2020/12/29 00:14:03;;;;;;;6.72;4.88;;;;;;;;;;5055008;28;20033;-64
2020/12/29 00:16:29;;;;;;;9.75;6.07;;;;;;;;;;5054700;28;20037;-64
2020/12/29 00:18:54;;;;;;;8.32;5.30;;;;;;;;;;5054534;28;20039;-64
2020/12/29 00:21:20;;;;;;;5.45;4.25;;;;;;;;;;5054533;28;20070;-64
2020/12/29 00:23:46;;;;;;;5.15;4.05;;;;;;;;;;5036643;28;20387;-64
2020/12/29 00:26:12;;;;;;;7.22;5.00;;;;;;;;;;5054346;28;20120;-64
2020/12/29 00:28:39;;;;;;;5.95;4.45;;;;;;;;;;5053370;28;20032;-64
2020/12/29 00:31:04;;;;;;;6.35;4.55;;;;;;;;;;5054032;28;20127;-65
2020/12/29 00:33:30;;;;;;;5.05;4.30;;;;;;;;;;5054630;28;20122;-64
2020/12/29 00:35:56;;;;;;;8.02;4.65;;;;;;;;;;5057064;28;20044;-63
2020/12/29 00:38:21;;;;;;;5.65;4.53;;;;;;;;;;5054461;28;20091;-64
2020/12/29 00:40:47;;;;;;;5.85;3.80;;;;;;;;;;5053437;28;20043;-64
2020/12/29 00:43:13;;;;;;;6.47;4.40;;;;;;;;;;5054167;28;20044;-64
2020/12/29 00:45:39;;;;;;;4.95;4.20;;;;;;;;;;5052839;28;20084;-64
2020/12/29 00:48:04;;;;;;;4.90;3.60;;;;;;;;;;5036265;28;20076;-64
2020/12/29 00:50:30;;;;;;;6.07;3.72;;;;;;;;;;5055112;28;20039;-64
2020/12/29 00:52:55;;;;;;;4.20;3.80;;;;;;;;;;5072603;28;20486;-64
2020/12/29 00:55:27;;;;;;;3.65;3.35;;;;;;;;;;5055947;28;20502;-65
2020/12/29 00:57:52;;;;;;;5.10;3.45;;;;;;;;;;5073974;28;20032;-64
2020/12/29 01:00:18;;;;;;;4.13;3.72;;;;;;;;;;5040733;28;20467;-64
2020/12/29 01:02:59;;;;;;;3.67;3.22;;;;;;;;;;5047791;28;20032;-64
2020/12/29 01:05:25;;;;;;;7.82;5.07;;;;;;;;;;5074315;28;20112;-64
2020/12/29 01:07:50;;;;;;;4.85;3.90;;;;;;;;;;5075825;28;20119;-64
2020/12/29 01:10:18;;;;;;;4.53;4.10;;;;;;;;;;5075777;28;20036;-64
2020/12/29 01:13:01;;;;;;;3.30;3.00;;;;;;;;;;5094272;28;20452;-64
2020/12/29 01:15:30;;;;;;;3.67;2.58;;;;;;;;;;5075800;28;20071;-64
2020/12/29 01:18:02;;;;;;;3.25;2.95;;;;;;;;;;5075674;28;20028;-64
2020/12/29 01:20:27;;;;;;;5.75;3.65;;;;;;;;;;5075600;28;20531;-64
2020/12/29 01:22:53;;;;;;;3.80;3.15;;;;;;;;;;5075524;28;20024;-64
2020/12/29 01:25:19;;;;;;;3.40;3.03;;;;;;;;;;5093538;28;20036;-64
2020/12/29 01:27:45;;;;;;;4.07;3.25;;;;;;;;;;5093587;28;20115;-64
2020/12/29 01:30:11;;;;;;;4.15;2.97;;;;;;;;;;5093544;28;20034;-64
2020/12/29 01:32:36;;;;;;;3.10;2.80;;;;;;;;;;5093608;28;20470;-64
2020/12/29 01:35:02;;;;;;;2.90;2.65;;;;;;;;;;5093533;28;20036;-64
2020/12/29 01:37:28;;;;;;;2.92;2.72;;;;;;;;;;5093605;28;20024;-64
2020/12/29 01:39:54;;;;;;;3.75;2.70;;;;;;;;;;5093321;28;20043;-64
2020/12/29 01:42:19;;;;;;;4.53;3.50;;;;;;;;;;5093584;28;20020;-64
2020/12/29 01:44:45;;;;;;;3.70;2.67;;;;;;;;;;5093473;28;20032;-64
2020/12/29 01:47:10;;;;;;;2.90;2.60;;;;;;;;;;5093277;28;20035;-64
2020/12/29 01:49:36;;;;;;;3.10;2.78;;;;;;;;;;5093489;28;20028;-64
2020/12/29 01:52:02;;;;;;;2.88;2.67;;;;;;;;;;5093336;28;20388;-64
2020/12/29 01:54:27;;;;;;;3.70;3.05;;;;;;;;;;5093449;28;20032;-64
2020/12/29 01:56:53;;;;;;;3.55;2.85;;;;;;;;;;5093354;28;20036;-64
2020/12/29 01:59:18;;;;;;;3.70;2.92;;;;;;;;;;5075377;28;20398;-64
2020/12/29 02:01:44;;;;;;;3.83;3.13;;;;;;;;;;5092148;28;20056;-64
2020/12/29 02:04:10;;;;;;;10.32;4.90;;;;;;;;;;5093290;28;20028;-65
2020/12/29 02:06:39;;;;;;;5.05;3.60;;;;;;;;;;5092561;28;20047;-64
2020/12/29 02:09:06;;;;;;;5.70;4.10;;;;;;;;;;5093161;28;20040;-63
2020/12/29 02:11:32;;;;;;;7.03;4.22;;;;;;;;;;5074994;28;20059;-64
2020/12/29 02:13:57;;;;;;;5.43;3.70;;;;;;;;;;5075040;28;20036;-63
2020/12/29 02:16:23;;;;;;;5.00;3.13;;;;;;;;;;5093370;28;20039;-64
2020/12/29 02:18:53;;;;;;;4.57;3.03;;;;;;;;;;5074520;28;20047;-64
2020/12/29 02:21:19;;;;;;;3.07;2.40;;;;;;;;;;5093109;28;20048;-64
2020/12/29 02:23:45;;;;;;;2.40;2.10;;;;;;;;;;5093077;28;20044;-64
2020/12/29 02:26:10;;;;;;;2.10;2.00;;;;;;;;;;5093119;28;20028;-63
2020/12/29 02:28:36;;;;;;;3.08;2.00;;;;;;;;;;5074919;28;20478;-63
2020/12/29 02:31:02;;;;;;;3.05;2.53;;;;;;;;;;5093318;28;20017;-63
2020/12/29 02:33:27;;;;;;;2.33;2.20;;;;;;;;;;5074850;28;20036;-63
2020/12/29 02:35:53;;;;;;;3.45;2.40;;;;;;;;;;5092875;28;20028;-64
2020/12/29 02:38:23;;;;;;;3.38;2.63;;;;;;;;;;5092871;28;20040;-64
2020/12/29 02:40:49;;;;;;;2.15;2.05;;;;;;;;;;5074963;28;20036;-64
2020/12/29 02:43:14;;;;;;;2.33;2.10;;;;;;;;;;5074881;28;20093;-64
2020/12/29 02:45:40;;;;;;;3.97;2.83;;;;;;;;;;5092670;28;20110;-64
2020/12/29 02:48:05;;;;;;;3.45;2.38;;;;;;;;;;5074613;28;20036;-65
2020/12/29 02:50:31;;;;;;;2.35;2.25;;;;;;;;;;5092740;28;20028;-65
2020/12/29 02:52:57;;;;;;;2.30;2.20;;;;;;;;;;5094897;28;20032;-65
2020/12/29 02:55:23;;;;;;;2.45;2.28;;;;;;;;;;5096470;28;20497;-65
2020/12/29 02:57:49;;;;;;;2.05;1.77;;;;;;;;;;5096445;28;20041;-65
2020/12/29 03:00:14;;;;;;;2.67;2.20;;;;;;;;;;5096312;28;20028;-65
2020/12/29 03:02:40;;;;;;;2.42;1.90;;;;;;;;;;5096281;28;20036;-65
2020/12/29 03:05:05;;;;;;;2.92;2.63;;;;;;;;;;5096241;28;20115;-66
2020/12/29 03:07:38;;;;;;;2.00;1.90;;;;;;;;;;5096295;28;20044;-66
2020/12/29 03:10:07;;;;;;;2.47;2.28;;;;;;;;;;5078087;28;20094;-66
2020/12/29 03:12:36;;;;;;;2.40;2.20;;;;;;;;;;5096316;28;20455;-65
2020/12/29 03:15:02;;;;;;;4.00;2.30;;;;;;;;;;5096221;28;20036;-65
2020/12/29 03:17:27;;;;;;;2.67;2.45;;;;;;;;;;5096234;28;20086;-65
2020/12/29 03:19:53;;;;;;;3.10;2.38;;;;;;;;;;5096145;28;20078;-65
2020/12/29 03:22:18;;;;;;;2.38;2.08;;;;;;;;;;5095892;28;20038;-65
2020/12/29 03:24:45;;;;;;;4.63;3.10;;;;;;;;;;5096074;28;20040;-66
2020/12/29 03:27:10;;;;;;;2.95;2.50;;;;;;;;;;5096072;28;20020;-66
2020/12/29 03:29:36;;;;;;;2.75;2.55;;;;;;;;;;5077707;28;20039;-66
2020/12/29 03:32:02;;;;;;;3.88;2.72;;;;;;;;;;5077745;28;20028;-66
2020/12/29 03:34:37;;;;;;;3.78;3.00;;;;;;;;;;5077606;28;20551;-64
2020/12/29 03:37:06;;;;;;;3.00;2.70;;;;;;;;;;5095835;28;20043;-65
2020/12/29 03:39:31;;;;;;;4.97;3.33;;;;;;;;;;5077791;28;20115;-66
2020/12/29 03:41:57;;;;;;;2.83;2.20;;;;;;;;;;5077656;28;20501;-66
2020/12/29 03:44:22;;;;;;;3.20;2.90;;;;;;;;;;5077384;28;20055;-65
2020/12/29 03:46:48;;;;;;;3.22;3.00;;;;;;;;;;5095694;28;20065;-65
2020/12/29 03:49:13;;;;;;;3.85;3.13;;;;;;;;;;5095562;28;20052;-66
2020/12/29 03:51:39;;;;;;;2.97;2.70;;;;;;;;;;5094238;28;20044;-66
2020/12/29 03:54:04;;;;;;;2.72;2.50;;;;;;;;;;5077231;28;20030;-66
2020/12/29 03:56:30;;;;;;;3.00;2.65;;;;;;;;;;5077100;28;20106;-66
2020/12/29 03:58:56;;;;;;;5.82;3.40;;;;;;;;;;5077054;28;20046;-66
2020/12/29 04:01:22;;;;;;;3.38;3.08;;;;;;;;;;5095119;28;20086;-67
2020/12/29 04:03:48;;;;;;;2.92;2.67;;;;;;;;;;5095025;28;20028;-64
2020/12/29 04:06:13;;;;;;;3.45;2.90;;;;;;;;;;5090220;28;20043;-64
2020/12/29 04:08:39;;;;;;;3.80;3.50;;;;;;;;;;5074739;28;20063;-64
2020/12/29 04:11:05;;;;;;;4.00;3.38;;;;;;;;;;5073456;28;20067;-64
2020/12/29 04:13:30;;;;;;;3.17;2.88;;;;;;;;;;5074651;28;20413;-64
2020/12/29 04:15:57;;;;;;;3.35;2.83;;;;;;;;;;5074646;28;20040;-64
2020/12/29 04:18:22;;;;;;;2.70;2.50;;;;;;;;;;5073512;28;20025;-63
2020/12/29 04:20:48;;;;;;;3.38;2.55;;;;;;;;;;5074622;28;20050;-64
2020/12/29 04:23:13;;;;;;;3.17;2.70;;;;;;;;;;5073423;28;20032;-64
2020/12/29 04:25:39;;;;;;;2.53;2.33;;;;;;;;;;5074635;28;20033;-64
2020/12/29 04:28:04;;;;;;;3.45;2.90;;;;;;;;;;5074410;28;20548;-64
2020/12/29 04:30:30;;;;;;;2.55;2.35;;;;;;;;;;5074457;28;20036;-64
2020/12/29 04:32:55;;;;;;;3.30;2.65;;;;;;;;;;5074379;28;20060;-64
2020/12/29 04:35:22;;;;;;;2.80;2.17;;;;;;;;;;5074288;28;20024;-64
2020/12/29 04:37:47;;;;;;;3.33;2.20;;;;;;;;;;5074136;28;20033;-64
2020/12/29 04:40:13;;;;;;;2.03;1.90;;;;;;;;;;5089894;28;20067;-64
2020/12/29 04:42:39;;;;;;;2.20;2.10;;;;;;;;;;5074278;28;20039;-64
2020/12/29 04:45:07;;;;;;;2.22;2.03;;;;;;;;;;5074246;28;20064;-65
2020/12/29 04:47:33;;;;;;;2.67;2.20;;;;;;;;;;5074080;28;20429;-65
2020/12/29 04:49:59;;;;;;;2.70;2.30;;;;;;;;;;5074173;28;20090;-65
2020/12/29 04:52:26;;;;;;;2.97;2.72;;;;;;;;;;5074047;28;20029;-65
2020/12/29 04:54:53;;;;;;;3.05;2.67;;;;;;;;;;5073936;28;20033;-65
2020/12/29 04:57:19;;;;;;;2.67;2.08;;;;;;;;;;5072693;28;20031;-64
2020/12/29 04:59:45;;;;;;;2.50;2.30;;;;;;;;;;5073951;28;20048;-64
2020/12/29 05:02:10;;;;;;;1.90;1.80;;;;;;;;;;5089564;28;20033;-64
2020/12/29 05:04:36;;;;;;;2.30;2.10;;;;;;;;;;5073736;28;20115;-65
2020/12/29 05:07:01;;;;;;;2.22;2.13;;;;;;;;;;5087913;28;20094;-66
2020/12/29 05:09:27;;;;;;;2.03;1.92;;;;;;;;;;5093936;28;20090;-66
2020/12/29 05:11:53;;;;;;;1.83;1.73;;;;;;;;;;5093918;28;20024;-64
2020/12/29 05:14:19;;;;;;;1.60;1.50;;;;;;;;;;5093533;28;20032;-65
2020/12/29 05:16:45;;;;;;;1.52;1.23;;;;;;;;;;5093707;28;20023;-65
2020/12/29 05:19:12;;;;;;;1.00;1.00;;;;;;;;;;5093824;28;20036;-64
2020/12/29 05:21:38;;;;;;;1.10;1.00;;;;;;;;;;5093705;28;20032;-64
2020/12/29 05:24:13;;;;;;;1.30;1.20;;;;;;;;;;5092600;28;20046;-64
2020/12/29 05:26:39;;;;;;;1.08;0.90;;;;;;;;;;5093607;28;20134;-65
2020/12/29 05:29:06;;;;;;;0.85;0.85;;;;;;;;;;5094202;28;20099;-65
2020/12/29 05:31:32;;;;;;;1.45;1.10;;;;;;;;;;5097761;28;20028;-65
2020/12/29 05:33:58;;;;;;;2.17;0.95;;;;;;;;;;5074479;28;20035;-65
2020/12/29 05:36:24;;;;;;;0.73;0.73;;;;;;;;;;5055605;28;20136;-66
2020/12/29 05:38:49;;;;;;;1.65;0.93;;;;;;;;;;5084964;28;20111;-65
2020/12/29 05:41:21;;;;;;;0.85;0.73;;;;;;;;;;5113927;28;20123;-65
2020/12/29 05:43:56;;;;;;;1.30;1.20;;;;;;;;;;5113802;28;20031;-65
2020/12/29 05:46:25;;;;;;;2.55;2.35;;;;;;;;;;5113924;28;20036;-65
2020/12/29 05:48:57;;;;;;;2.50;2.30;;;;;;;;;;5113787;28;20050;-65
2020/12/29 05:51:24;;;;;;;1.65;1.55;;;;;;;;;;5114255;28;20037;-65
2020/12/29 05:53:49;;;;;;;1.50;1.40;;;;;;;;;;5111840;28;20058;-66
2020/12/29 05:56:17;;;;;;;2.03;0.90;;;;;;;;;;5074192;28;20060;-65
2020/12/29 05:58:42;;;;;;;1.00;0.90;;;;;;;;;;5092132;28;20028;-66
2020/12/29 06:01:08;;;;;;;0.82;0.82;;;;;;;;;;5092249;28;20097;-66
2020/12/29 06:03:34;;;;;;;1.25;1.00;;;;;;;;;;5092029;28;20031;-67
2020/12/29 06:06:03;;;;;;;1.20;1.05;;;;;;;;;;5091205;28;20032;-66
2020/12/29 06:08:29;;;;;;;1.50;1.17;;;;;;;;;;5091525;28;20538;-65
2020/12/29 06:10:59;;;;;;;1.77;1.00;;;;;;;;;;5091718;28;20020;-66
2020/12/29 06:13:26;;;;;;;1.20;1.10;;;;;;;;;;5088720;28;20106;-66
2020/12/29 06:15:57;;;;;;;1.45;1.25;;;;;;;;;;5091845;28;20025;-66
2020/12/29 06:18:22;;;;;;;;;;;;;;;;;;5080833;28;20110;-66
2020/12/29 06:20:50;;;;;;;1.10;0.60;;;;;;;;;;5091377;28;19910;-66
2020/12/29 06:23:19;;;;;;;1.60;1.00;;;;;;;;;;5091432;28;20058;-65
2020/12/29 06:25:45;;;;;;;1.85;1.05;;;;;;;;;;5087515;28;20028;-66
2020/12/29 06:28:13;;;;;;;1.35;1.25;;;;;;;;;;5093172;28;20036;-66
2020/12/29 06:30:40;;;;;;;1.17;1.13;;;;;;;;;;5097081;28;20111;-66
2020/12/29 06:33:07;;;;;;;0.93;0.82;;;;;;;;;;5097033;28;20033;-66
2020/12/29 06:35:33;;;;;;;1.50;1.20;;;;;;;;;;5097032;28;20420;-67
2020/12/29 06:37:58;;;;;;;2.08;1.23;;;;;;;;;;5096932;28;20040;-66
2020/12/29 06:40:26;;;;;;;0.82;0.82;;;;;;;;;;5078727;28;20085;-65
2020/12/29 06:42:52;;;;;;;1.40;1.25;;;;;;;;;;5096853;28;20040;-66
2020/12/29 06:45:18;;;;;;;1.95;1.30;;;;;;;;;;5096918;28;20032;-65
2020/12/29 06:47:44;;;;;;;2.78;1.20;;;;;;;;;;5096636;28;20040;-66
2020/12/29 06:50:20;;;;;;;2.47;2.00;;;;;;;;;;5094573;28;20394;-66
2020/12/29 06:52:52;;;;;;;1.60;1.50;;;;;;;;;;5058024;28;20048;-65
2020/12/29 06:55:18;;;;;;;1.55;1.45;;;;;;;;;;5095625;28;20419;-64
2020/12/29 06:57:44;;;;;;;1.27;1.17;;;;;;;;;;5095032;28;20028;-65
2020/12/29 07:00:09;;;;;;;1.75;1.27;;;;;;;;;;5095254;28;20043;-66
2020/12/29 07:02:36;;;;;;;2.08;1.80;;;;;;;;;;5096427;28;20055;-65
2020/12/29 07:05:10;;;;;;;1.30;0.88;;;;;;;;;;5096563;28;20036;-65
2020/12/29 07:07:44;;;;;;;1.27;1.17;;;;;;;;;;5096398;28;20044;-65
2020/12/29 07:10:11;;;;;;;2.50;1.60;;;;;;;;;;5078264;28;20040;-65
2020/12/29 07:12:39;;;;;;;1.80;1.15;;;;;;;;;;5096131;28;20107;-65
2020/12/29 07:15:05;;;;;;;1.50;1.20;;;;;;;;;;5096239;28;20501;-65
2020/12/29 07:17:31;;;;;;;3.22;1.52;;;;;;;;;;5096049;28;20110;-65
2020/12/29 07:19:58;;;;;;;2.13;1.50;;;;;;;;;;5096144;28;20063;-66
2020/12/29 07:22:25;;;;;;;1.20;0.90;;;;;;;;;;5095941;28;20036;-66
2020/12/29 07:24:50;;;;;;;1.00;0.90;;;;;;;;;;5095964;28;20032;-66
2020/12/29 07:27:19;;;;;;;1.02;0.82;;;;;;;;;;5077989;28;20405;-66
2020/12/29 07:29:52;;;;;;;1.00;0.95;;;;;;;;;;5078000;28;20025;-67
2020/12/29 07:32:18;;;;;;;1.02;0.93;;;;;;;;;;5095912;28;20039;-67
2020/12/29 07:34:45;;;;;;;1.02;0.80;;;;;;;;;;5077588;28;20028;-66
2020/12/29 07:37:12;;;;;;;1.33;1.23;;;;;;;;;;5077950;28;20040;-67
2020/12/29 07:39:37;;;;;;;1.48;0.90;;;;;;;;;;5077394;28;20028;-67
2020/12/29 07:42:03;;;;;;;1.27;1.17;;;;;;;;;;5095681;28;20036;-67
2020/12/29 07:44:34;;;;;;;0.52;0.52;;;;;;;;;;5094694;28;20039;-66
2020/12/29 07:47:00;;;;;;;1.40;1.15;;;;;;;;;;5095177;28;20051;-67
2020/12/29 07:49:25;;;;;;;1.10;1.00;;;;;;;;;;5076170;28;20028;-67
2020/12/29 07:51:51;;;;;;;1.88;1.77;;;;;;;;;;5076483;28;20064;-67
2020/12/29 07:54:19;;;;;;;1.55;1.45;;;;;;;;;;5094439;28;20031;-67
2020/12/29 07:56:45;;;;;;;2.17;1.60;;;;;;;;;;5076271;28;20036;-67
2020/12/29 07:59:11;;;;;;;2.08;1.52;;;;;;;;;;5094313;28;20051;-67
2020/12/29 08:01:52;;;;;;;1.95;1.67;;;;;;;;;;5075657;28;20036;-67
2020/12/29 08:04:22;;;;;;;1.52;1.42;;;;;;;;;;5094997;28;20487;-67
2020/12/29 08:06:47;;;;;;;1.95;1.10;;;;;;;;;;5094949;28;20044;-67
2020/12/29 08:09:14;;;;;;;2.08;1.85;;;;;;;;;;5095256;28;20043;-67
2020/12/29 08:11:40;;;;;;;2.92;2.10;;;;;;;;;;5094954;28;20475;-67
2020/12/29 08:14:05;;;;;;;2.50;1.95;;;;;;;;;;5094850;28;20461;-67
2020/12/29 08:16:31;;;;;;;2.58;2.22;;;;;;;;;;5095069;28;20062;-67
2020/12/29 08:19:00;;;;;;;2.97;2.67;;;;;;;;;;5094861;28;20034;-67
2020/12/29 08:25:00;;;;;;;2.53;2.33;;;;;;;;;;5095520;28;20113;-67
2020/12/29 08:31:01;;;;;;;2.63;2.38;;;;;;;;;;5095399;28;20097;-67
2020/12/29 08:37:02;;;;;;;1.80;1.67;;;;;;;;;;5095259;28;20370;-67
2020/12/29 08:43:03;;;;;;;3.80;3.45;;;;;;;;;;5095172;28;20027;-67
2020/12/29 08:49:05;;;;;;;3.75;3.05;;;;;;;;;;5094772;28;20489;-67
2020/12/29 08:55:05;;;;;;;4.55;3.03;;;;;;;;;;5094956;28;20031;-67
2020/12/29 09:01:06;;;;;;;3.20;2.72;;;;;;;;;;5094580;28;20047;-67
2020/12/29 09:18:07;;;;;;;2.83;2.53;;;;;;;;;;5094511;28;20090;-67
2020/12/29 09:28:04;;;;;;;2.30;2.00;;;;;;;;;;5094164;28;20144;-68
2020/12/29 09:34:05;;;;;;;2.55;2.35;;;;;;;;;;5094283;28;20035;-68
2020/12/29 09:40:06;;;;;;;3.85;3.42;;;;;;;;;;5094228;28;20023;-68
2020/12/29 09:46:08;;;;;;;3.45;1.85;;;;;;;;;;5094094;28;20039;-67
2020/12/29 09:52:09;;;;;;;3.40;1.83;;;;;;;;;;5094049;28;20052;-68
2020/12/29 09:58:15;;;;;;;2.42;2.22;;;;;;;;;;5093417;28;20035;-68
2020/12/29 10:00:41;;;;;;;2.72;2.53;;;;;;;;;;5075265;28;20036;-65
2020/12/29 10:03:08;;;;;;;2.97;2.35;;;;;;;;;;5097471;28;20078;-65
2020/12/29 10:09:22;;;;;;;4.20;3.75;;;;;;;;;;5077879;28;20472;-65
2020/12/29 10:11:47;;;;;;;2.33;2.20;;;;;;;;;;5077440;28;20064;-65
2020/12/29 10:14:13;;;;;;;1.88;1.70;;;;;;;;;;5059204;28;20060;-65
2020/12/29 10:16:38;;;;;;;3.85;2.60;;;;;;;;;;5077044;28;20127;-67
2020/12/29 10:19:04;;;;;;;2.72;2.03;;;;;;;;;;5076909;28;20063;-67
2020/12/29 10:21:29;;;;;;;3.13;2.88;;;;;;;;;;5076890;28;20487;-66
2020/12/29 10:23:55;;;;;;;2.08;1.98;;;;;;;;;;5058864;28;20040;-67
2020/12/29 10:26:20;;;;;;;2.50;2.30;;;;;;;;;;5076641;28;20040;-68
2020/12/29 10:28:46;;;;;;;3.00;2.58;;;;;;;;;;5076910;28;20020;-67
2020/12/29 10:31:11;;;;;;;1.50;1.40;;;;;;;;;;5076839;28;20043;-68
2020/12/29 10:33:37;;;;;;;4.40;3.08;;;;;;;;;;5076505;28;20028;-63
2020/12/29 10:36:02;;;;;;;3.00;2.70;;;;;;;;;;5076505;28;20025;-65
2020/12/29 10:38:28;;;;;;;2.75;2.50;;;;;;;;;;5058811;28;20431;-65
2020/12/29 10:40:53;;;;;;;1.60;1.50;;;;;;;;;;5076805;28;20045;-66
2020/12/29 10:43:19;;;;;;;2.58;1.52;;;;;;;;;;5058392;28;20025;-66
2020/12/29 10:45:44;;;;;;;3.65;2.78;;;;;;;;;;5076459;28;20068;-66
2020/12/29 10:48:10;;;;;;;2.53;2.33;;;;;;;;;;5076342;28;20120;-65
2020/12/29 10:50:35;;;;;;;2.13;1.92;;;;;;;;;;5076362;28;20037;-66
2020/12/29 10:53:00;;;;;;;0.70;0.63;;;;;;;;;;5076267;28;20033;-66
2020/12/29 10:55:26;;;;;;;2.65;2.00;;;;;;;;;;5076538;28;20131;-66
2020/12/29 10:57:52;;;;;;;2.97;2.65;;;;;;;;;;5058239;28;20024;-66
2020/12/29 11:00:18;;;;;;;4.78;3.10;;;;;;;;;;5076130;28;20041;-66
2020/12/29 11:02:43;;;;;;;3.17;2.88;;;;;;;;;;5057970;28;20171;-66
2020/12/29 11:05:09;;;;;;;3.00;2.70;;;;;;;;;;5075963;28;20041;-66
2020/12/29 11:07:34;;;;;;;1.70;1.60;;;;;;;;;;5065179;28;20036;-66
2020/12/29 11:10:00;;;;;;;1.17;1.10;;;;;;;;;;5096543;28;20039;-66
2020/12/29 11:12:25;;;;;;;2.58;2.38;;;;;;;;;;5095370;28;20035;-65
2020/12/29 11:14:51;;;;;;;1.23;1.08;;;;;;;;;;5095892;28;20085;-65
2020/12/29 11:17:16;;;;;;;3.03;2.70;;;;;;;;;;5077697;28;20391;-66
2020/12/29 11:19:42;;;;;;;2.40;2.20;;;;;;;;;;5096023;28;20098;-66
2020/12/29 11:22:07;;;;;;;2.65;2.40;;;;;;;;;;5095965;28;20058;-66
2020/12/29 11:24:33;;;;;;;2.47;2.28;;;;;;;;;;5095826;28;20115;-65
2020/12/29 11:26:58;;;;;;;2.83;2.20;;;;;;;;;;5095865;28;20028;-65
2020/12/29 11:29:24;;;;;;;2.45;2.25;;;;;;;;;;5096020;28;20068;-65
2020/12/29 11:31:49;;;;;;;2.50;1.33;;;;;;;;;;5095956;28;20055;-65
2020/12/29 11:34:15;;;;;;;1.88;1.77;;;;;;;;;;5077843;28;20039;-65
2020/12/29 11:36:40;;;;;;;2.60;2.10;;;;;;;;;;5095873;28;20359;-65
2020/12/29 11:39:07;;;;;;;1.85;1.75;;;;;;;;;;5095648;28;20046;-65
2020/12/29 11:41:32;;;;;;;2.00;1.80;;;;;;;;;;5095771;28;20028;-65
2020/12/29 11:43:58;;;;;;;2.20;2.00;;;;;;;;;;5095769;28;20043;-66
2020/12/29 11:46:23;;;;;;;3.00;1.98;;;;;;;;;;5095588;28;20020;-66
2020/12/29 11:48:49;;;;;;;1.85;1.60;;;;;;;;;;5095566;28;20032;-66
2020/12/29 11:51:14;;;;;;;2.60;2.00;;;;;;;;;;5095445;28;20032;-65
2020/12/29 11:53:40;;;;;;;2.30;1.88;;;;;;;;;;5094235;28;20043;-65
2020/12/29 11:56:08;;;;;;;1.60;1.50;;;;;;;;;;5095617;28;20081;-66
2020/12/29 11:58:34;;;;;;;2.55;2.05;;;;;;;;;;5095331;28;20047;-65
2020/12/29 12:00:59;;;;;;;2.00;1.80;;;;;;;;;;5077151;28;20394;-65
2020/12/29 12:03:25;;;;;;;1.90;1.80;;;;;;;;;;5077223;28;20039;-65
2020/12/29 12:05:50;;;;;;;2.10;1.77;;;;;;;;;;5077104;28;20017;-65
2020/12/29 12:08:16;;;;;;;2.67;2.10;;;;;;;;;;5076813;28;20052;-66
2020/12/29 12:10:41;;;;;;;1.73;1.63;;;;;;;;;;5095126;28;20028;-64
2020/12/29 12:13:07;;;;;;;1.90;1.80;;;;;;;;;;5075654;28;20124;-64
2020/12/29 12:15:32;;;;;;;1.88;1.70;;;;;;;;;;5074382;28;20079;-64
2020/12/29 12:17:58;;;;;;;1.73;1.63;;;;;;;;;;5056753;28;20049;-64
2020/12/29 12:20:23;;;;;;;2.00;1.80;;;;;;;;;;5056653;28;20495;-64
2020/12/29 12:22:49;;;;;;;2.92;1.92;;;;;;;;;;5073344;28;20036;-67
2020/12/29 12:25:14;;;;;;;1.95;1.75;;;;;;;;;;5074401;28;20039;-67
2020/12/29 12:27:40;;;;;;;1.73;1.63;;;;;;;;;;5074342;28;20033;-67
2020/12/29 12:30:05;;;;;;;0.88;0.88;;;;;;;;;;5074432;28;20024;-67
2020/12/29 12:32:31;;;;;;;3.22;2.17;;;;;;;;;;5074295;28;20028;-66
2020/12/29 12:34:56;;;;;;;2.47;2.15;;;;;;;;;;5074212;28;20025;-67
2020/12/29 12:37:22;;;;;;;2.28;1.65;;;;;;;;;;5073160;28;20070;-67
2020/12/29 12:39:47;;;;;;;1.98;1.73;;;;;;;;;;5074468;28;20433;-67
2020/12/29 12:42:18;;;;;;;1.67;1.50;;;;;;;;;;5073077;28;20036;-67
2020/12/29 12:44:43;;;;;;;1.67;1.33;;;;;;;;;;5056468;28;20028;-67
2020/12/29 12:47:09;;;;;;;2.20;2.10;;;;;;;;;;5073595;28;20509;-67
2020/12/29 12:49:34;;;;;;;1.98;1.70;;;;;;;;;;5072951;28;20040;-67
2020/12/29 12:52:00;;;;;;;1.38;1.27;;;;;;;;;;5053595;28;20065;-66
2020/12/29 12:54:26;;;;;;;1.50;1.35;;;;;;;;;;5075708;28;20043;-66
2020/12/29 12:56:55;;;;;;;3.15;1.90;;;;;;;;;;5073371;28;20029;-66
2020/12/29 12:59:20;;;;;;;1.85;1.60;;;;;;;;;;5060919;28;20037;-66
2020/12/29 13:01:50;;;;;;;2.13;1.60;;;;;;;;;;5053084;28;20025;-66
2020/12/29 13:04:15;;;;;;;2.78;1.90;;;;;;;;;;5053156;28;20174;-66
2020/12/29 13:06:41;;;;;;;3.80;2.70;;;;;;;;;;5053211;28;20115;-66
2020/12/29 13:09:06;;;;;;;3.85;2.63;;;;;;;;;;5054955;28;20124;-66
2020/12/29 13:11:32;;;;;;;2.42;2.05;;;;;;;;;;5057144;28;20072;-66
2020/12/29 13:13:58;;;;;;;3.40;2.47;;;;;;;;;;5067497;28;20029;-66
2020/12/29 13:16:23;;;;;;;5.82;3.63;;;;;;;;;;5065611;28;20024;-66
2020/12/29 13:18:52;;;;;;;5.45;4.15;;;;;;;;;;5072130;28;20032;-66
2020/12/29 13:21:18;;;;;;;7.00;3.90;;;;;;;;;;5073019;28;20032;-66
2020/12/29 13:23:44;;;;;;;5.53;3.30;;;;;;;;;;5069040;28;20043;-66
2020/12/29 13:26:15;;;;;;;4.50;2.58;;;;;;;;;;5070424;28;20114;-66
2020/12/29 13:28:42;;;;;;;4.30;2.78;;;;;;;;;;5073447;28;20093;-64
2020/12/29 13:31:10;;;;;;;4.13;2.67;;;;;;;;;;5072893;28;20029;-64
2020/12/29 13:33:39;;;;;;;4.47;3.40;;;;;;;;;;5073491;28;20116;-64
2020/12/29 13:36:06;;;;;;;8.43;5.15;;;;;;;;;;5073089;28;20383;-64
2020/12/29 13:38:32;;;;;;;7.30;4.82;;;;;;;;;;5073474;28;20063;-64
2020/12/29 13:40:59;;;;;;;3.60;2.97;;;;;;;;;;5055350;28;20509;-64
2020/12/29 13:43:25;;;;;;;3.67;3.20;;;;;;;;;;5073460;28;20044;-64
2020/12/29 13:45:51;;;;;;;4.47;3.38;;;;;;;;;;5054997;28;20472;-64
2020/12/29 13:48:16;;;;;;;4.53;3.83;;;;;;;;;;5072698;28;20085;-64
2020/12/29 13:50:42;;;;;;;4.22;3.75;;;;;;;;;;5071754;28;20037;-64
2020/12/29 13:53:07;;;;;;;3.45;3.00;;;;;;;;;;5073249;28;20056;-64
2020/12/29 13:55:33;;;;;;;4.38;3.30;;;;;;;;;;5072126;28;20032;-64
2020/12/29 13:57:58;;;;;;;8.32;5.07;;;;;;;;;;5072636;28;20028;-65
2020/12/29 14:00:24;;;;;;;15.10;8.02;;;;;;;;;;5072161;28;20044;-65
2020/12/29 14:02:50;;;;;;;40.10;19.33;;;;;;;;;;5072597;28;20033;-65
2020/12/29 14:05:16;;;;;;;99.95;53.58;;;;;;;;;;5054902;28;20399;-65
2020/12/29 14:07:41;;;;;;;91.47;43.47;;;;;;;;;;5072395;28;20048;-65
2020/12/29 14:10:07;;;;;;;248.30;89.65;;;;;;;;;;5073002;28;20079;-65
2020/12/29 14:12:32;;;;;;;175.27;70.18;;;;;;;;;;5054975;28;20456;-65
2020/12/29 14:14:58;;;;;;;106.25;42.00;;;;;;;;;;5072898;28;20034;-65
2020/12/29 14:17:23;;;;;;;54.58;23.13;;;;;;;;;;5072839;28;20032;-62
2020/12/29 14:19:49;;;;;;;38.80;18.42;;;;;;;;;;5072317;28;20048;-65
2020/12/29 14:22:15;;;;;;;57.60;31.80;;;;;;;;;;5054998;28;20086;-63
2020/12/29 14:24:40;;;;;;;45.22;25.48;;;;;;;;;;5054727;28;20120;-63
2020/12/29 14:27:06;;;;;;;97.32;47.55;;;;;;;;;;5071977;28;20040;-63
2020/12/29 14:29:32;;;;;;;111.20;53.50;;;;;;;;;;5053916;28;20078;-63
2020/12/29 14:31:59;;;;;;;93.20;45.83;;;;;;;;;;5060241;28;20037;-63
2020/12/29 14:34:26;;;;;;;75.18;37.25;;;;;;;;;;5052913;28;20087;-63
2020/12/29 14:36:52;;;;;;;76.93;37.58;;;;;;;;;;5052788;28;20054;-63
2020/12/29 14:39:17;;;;;;;61.17;32.03;;;;;;;;;;5040671;28;20093;-63
2020/12/29 14:41:44;;;;;;;63.83;34.42;;;;;;;;;;5070161;28;20016;-63
2020/12/29 14:44:10;;;;;;;40.30;30.02;;;;;;;;;;5071309;28;20059;-63
2020/12/29 14:46:36;;;;;;;51.40;34.10;;;;;;;;;;5056783;28;20455;-63
2020/12/29 14:49:02;;;;;;;49.58;30.23;;;;;;;;;;5074915;28;20036;-63
2020/12/29 14:51:28;;;;;;;91.03;48.53;;;;;;;;;;5069367;28;20029;-63
2020/12/29 14:53:54;;;;;;;105.47;56.03;;;;;;;;;;5073325;28;20405;-63
2020/12/29 14:56:23;;;;;;;151.55;79.55;;;;;;;;;;5069520;28;20033;-63
2020/12/29 14:58:49;;;;;;;171.13;91.80;;;;;;;;;;5054950;28;20035;-63
2020/12/29 15:01:22;;;;;;;152.20;80.78;;;;;;;;;;5058654;28;20032;-63
2020/12/29 15:03:48;;;;;;;68.28;40.30;;;;;;;;;;5060349;28;20496;-63
2020/12/29 15:06:23;;;;;;;134.88;80.32;;;;;;;;;;5065021;28;20044;-62
2020/12/29 15:08:49;;;;;;;27.52;16.85;;;;;;;;;;5086725;28;20395;-62
2020/12/29 15:11:14;;;;;;;15.65;8.23;;;;;;;;;;5088583;28;20028;-61
2020/12/29 15:13:40;;;;;;;45.85;27.55;;;;;;;;;;5096254;28;20035;-62
2020/12/29 15:16:05;;;;;;;115.55;48.53;;;;;;;;;;5096249;28;20443;-61
2020/12/29 15:18:31;;;;;;;129.23;55.72;;;;;;;;;;5094360;28;20510;-61
2020/12/29 15:20:56;;;;;;;99.63;46.22;;;;;;;;;;5090597;28;20428;-61
2020/12/29 15:23:22;;;;;;;73.88;45.97;;;;;;;;;;5063011;28;20032;-62
2020/12/29 15:25:47;;;;;;;53.03;34.55;;;;;;;;;;5063666;28;20123;-62
2020/12/29 15:28:13;;;;;;;62.55;40.50;;;;;;;;;;5060567;28;20036;-57
2020/12/29 15:30:39;;;;;;;75.93;49.25;;;;;;;;;;5095898;28;20024;-66
2020/12/29 15:33:04;;;;;;;190.05;94.93;;;;;;;;;;5083303;28;20091;-66
2020/12/29 15:35:30;;;;;;;62.28;37.22;;;;;;;;;;5075508;28;20025;-67
2020/12/29 15:37:55;;;;;;;142.75;84.28;;;;;;;;;;5097264;28;20075;-66
2020/12/29 15:40:21;;;;;;;144.68;82.72;;;;;;;;;;5112653;28;20097;-66
2020/12/29 15:42:46;;;;;;;121.50;62.47;;;;;;;;;;5095798;28;20036;-66
2020/12/29 15:45:12;;;;;;;41.90;26.13;;;;;;;;;;5077810;28;20532;-66